Time;durP1;ratioP1;P1;durP2;ratioP2;P2;SDS_P1;SDS_P2;PMS_P1;PMS_P2;Temp;Humidity;BMP_temperature;BMP_pressure;BME280_temperature;BME280_humidity;BME280_pressure;Samples;Min_cycle;Max_cycle;Signal;HPM_P1;HPM_P2
2021/07/01 00:02:03;;;;;;;22.35;14.57;;;;;;;17.27;69.94;100041.50;5058053;28;20049;-79
2021/07/01 00:04:30;;;;;;;14.43;11.27;;;;;;;17.27;70.17;100033.88;5056350;28;20057;-80
2021/07/01 00:06:58;;;;;;;16.00;11.15;;;;;;;17.27;70.30;100047.13;5057128;28;20056;-79
2021/07/01 00:09:26;;;;;;;14.32;11.50;;;;;;;17.30;69.92;100041.56;5056450;28;20045;-79
2021/07/01 00:11:56;;;;;;;13.48;11.43;;;;;;;17.30;69.96;100032.31;5056323;28;20049;-80
2021/07/01 00:14:24;;;;;;;16.50;13.20;;;;;;;17.20;70.43;100036.56;5060486;28;20053;-80
2021/07/01 00:16:53;;;;;;;16.30;12.32;;;;;;;17.24;70.46;100038.25;5061197;28;20053;-78
2021/07/01 00:19:22;;;;;;;18.23;13.00;;;;;;;17.20;70.05;100037.34;5060528;28;20056;-80
2021/07/01 00:21:49;;;;;;;16.50;12.93;;;;;;;17.27;70.27;100036.69;5060461;28;20061;-80
2021/07/01 00:24:17;;;;;;;16.10;13.30;;;;;;;17.30;70.14;100044.38;5061208;28;20056;-79
2021/07/01 00:26:44;;;;;;;17.60;14.73;;;;;;;17.31;69.50;100037.56;5061553;28;20053;-80
2021/07/01 00:29:13;;;;;;;17.60;14.40;;;;;;;17.32;69.54;100039.19;5060350;28;20064;-79
2021/07/01 00:31:40;;;;;;;19.50;15.63;;;;;;;17.33;69.54;100043.66;5061993;28;20049;-79
2021/07/01 00:34:08;;;;;;;18.48;16.38;;;;;;;17.16;70.24;100042.09;5060614;28;20057;-80
2021/07/01 00:36:35;;;;;;;19.85;16.13;;;;;;;17.21;70.55;100040.97;5054458;28;20059;-79
2021/07/01 00:39:04;;;;;;;22.75;17.58;;;;;;;17.25;70.22;100039.06;5081021;28;20056;-80
2021/07/01 00:41:31;;;;;;;27.70;18.58;;;;;;;17.28;70.69;100046.75;5081120;28;20049;-80
2021/07/01 00:43:58;;;;;;;21.40;18.00;;;;;;;17.29;70.58;100044.78;5081132;28;20056;-80
2021/07/01 00:46:27;;;;;;;22.42;17.70;;;;;;;17.20;70.92;100050.63;5081195;28;20056;-80
2021/07/01 00:48:55;;;;;;;24.42;18.67;;;;;;;17.23;71.17;100055.50;5079925;28;20052;-80
2021/07/01 00:51:22;;;;;;;20.67;17.30;;;;;;;17.27;71.23;100045.13;5080293;28;20048;-79
2021/07/01 00:53:49;;;;;;;24.80;19.02;;;;;;;17.24;72.00;100048.69;5080349;28;20048;-81
2021/07/01 00:56:19;;;;;;;18.10;16.13;;;;;;;17.14;72.14;100047.28;5079979;28;20052;-80
2021/07/01 00:58:47;;;;;;;20.83;17.42;;;;;;;17.20;72.32;100039.38;5061417;28;20060;-79
2021/07/01 01:01:14;;;;;;;20.67;16.48;;;;;;;17.22;72.26;100045.44;5058706;28;20048;-80
2021/07/01 01:03:43;;;;;;;19.83;16.50;;;;;;;17.29;71.87;100039.94;5060980;28;20073;-80
2021/07/01 01:06:10;;;;;;;19.87;15.73;;;;;;;17.20;71.82;100047.81;5060607;28;20057;-80
2021/07/01 01:08:38;;;;;;;17.92;14.43;;;;;;;17.23;71.13;100047.88;5060901;28;20049;-80
2021/07/01 01:11:05;;;;;;;17.80;12.88;;;;;;;17.18;71.17;100053.00;5059532;28;20053;-80
2021/07/01 01:13:33;;;;;;;16.55;13.57;;;;;;;17.15;72.00;100045.28;5059491;28;20053;-80
2021/07/01 01:16:02;;;;;;;19.88;14.25;;;;;;;17.18;71.69;100053.00;5060627;28;20072;-80
2021/07/01 01:18:30;;;;;;;17.98;14.60;;;;;;;16.87;72.67;100049.09;5061436;28;20053;-80
2021/07/01 01:21:00;;;;;;;18.35;14.00;;;;;;;16.89;72.63;100040.31;5060591;28;20408;-80
2021/07/01 01:23:29;;;;;;;;;;;;;;;16.87;71.98;100035.03;5060461;28;20053;-79
2021/07/01 01:25:58;;;;;;;16.80;13.27;;;;;;;16.85;72.92;100040.22;5059436;28;20277;-80
2021/07/01 01:28:26;;;;;;;20.63;13.95;;;;;;;16.73;73.08;100040.31;5059753;28;20417;-80
2021/07/01 01:30:54;;;;;;;17.20;12.95;;;;;;;16.81;72.89;100034.50;5060567;28;20064;-79
2021/07/01 01:33:21;;;;;;;17.92;14.18;;;;;;;16.73;73.34;100035.47;5060597;28;20053;-78
2021/07/01 01:35:49;;;;;;;21.23;15.45;;;;;;;16.75;73.86;100037.94;5056487;28;20049;-78
2021/07/01 01:38:17;;;;;;;19.90;15.30;;;;;;;16.65;74.18;100036.50;5077927;28;20044;-80
2021/07/01 01:40:48;;;;;;;23.88;15.88;;;;;;;16.47;74.95;100036.09;5079026;28;20049;-80
2021/07/01 01:43:16;;;;;;;21.52;15.48;;;;;;;16.58;74.75;100025.91;5059531;28;20052;-79
2021/07/01 01:45:45;;;;;;;23.27;16.27;;;;;;;16.33;75.70;100024.50;5059910;28;20053;-80
2021/07/01 01:48:12;;;;;;;23.63;16.40;;;;;;;16.50;75.37;100026.13;5065932;28;20401;-79
2021/07/01 01:50:41;;;;;;;26.02;17.67;;;;;;;16.56;75.00;100027.47;5079661;28;20052;-80
2021/07/01 01:53:08;;;;;;;25.70;17.48;;;;;;;16.56;75.19;100021.84;5079642;28;20048;-80
2021/07/01 01:55:37;;;;;;;23.83;17.63;;;;;;;16.62;75.33;100028.81;5079830;28;20048;-79
2021/07/01 01:58:07;;;;;;;22.85;17.83;;;;;;;16.66;74.89;100032.53;5078831;28;20059;-80
2021/07/01 02:00:36;;;;;;;30.70;19.33;;;;;;;16.45;76.49;100038.47;5067540;28;20076;-80
2021/07/01 02:03:04;;;;;;;35.03;21.15;;;;;;;16.52;76.66;100033.00;5061467;28;20049;-80
2021/07/01 02:05:31;;;;;;;35.05;20.35;;;;;;;16.48;76.64;100037.72;5060489;28;20064;-78
2021/07/01 02:07:59;;;;;;;34.63;20.77;;;;;;;16.56;76.05;100022.66;5060134;28;20057;-80
2021/07/01 02:10:33;;;;;;;40.05;21.30;;;;;;;16.57;76.16;100034.72;5059939;28;20060;-80
2021/07/01 02:13:00;;;;;;;34.90;20.90;;;;;;;16.36;76.48;100040.66;5059625;28;20075;-80
2021/07/01 02:15:29;;;;;;;39.22;22.02;;;;;;;16.40;76.49;100035.94;5076687;28;20378;-79
2021/07/01 02:17:57;;;;;;;46.25;22.27;;;;;;;16.43;77.21;100035.19;5075812;28;20052;-79
2021/07/01 02:20:26;;;;;;;45.25;23.48;;;;;;;16.47;76.95;100036.09;5059560;28;20044;-80
2021/07/01 02:22:54;;;;;;;37.20;21.65;;;;;;;16.23;76.96;100037.09;5060400;28;20064;-80
2021/07/01 02:25:22;;;;;;;47.55;24.65;;;;;;;16.23;76.95;100035.13;5077919;28;20052;-80
2021/07/01 02:27:49;;;;;;;42.20;23.42;;;;;;;16.00;78.27;100034.94;5079531;28;20048;-79
2021/07/01 02:30:20;;;;;;;46.88;26.27;;;;;;;16.30;77.58;100030.88;5079092;28;20056;-79
2021/07/01 02:32:49;;;;;;;44.00;24.70;;;;;;;16.36;76.91;100029.41;5079713;28;20057;-79
2021/07/01 02:35:16;;;;;;;45.33;26.50;;;;;;;16.23;76.87;100032.31;5079984;28;20059;-79
2021/07/01 02:37:46;;;;;;;46.00;26.60;;;;;;;16.26;76.88;100036.41;5075525;28;20052;-80
2021/07/01 02:40:15;;;;;;;43.92;24.90;;;;;;;16.34;76.42;100026.97;5078863;28;20048;-80
2021/07/01 02:42:44;;;;;;;46.38;25.88;;;;;;;16.29;76.97;100029.22;5079481;28;20500;-80
2021/07/01 02:45:12;;;;;;;46.33;26.60;;;;;;;16.26;77.04;100029.97;5079394;28;20055;-80
2021/07/01 02:47:40;;;;;;;51.28;28.10;;;;;;;16.39;77.10;100032.28;5079082;28;20063;-80
2021/07/01 02:50:11;;;;;;;42.05;23.73;;;;;;;16.48;76.90;100029.28;5079251;28;20048;-80
2021/07/01 02:52:39;;;;;;;50.90;27.00;;;;;;;16.42;77.24;100039.16;5058087;28;20470;-80
2021/07/01 02:55:08;;;;;;;43.67;24.58;;;;;;;16.52;76.73;100035.00;5039311;28;20057;-79
2021/07/01 02:57:35;;;;;;;42.33;24.05;;;;;;;16.46;76.75;100039.25;5038565;28;20060;-78
2021/07/01 03:00:05;;;;;;;36.72;22.95;;;;;;;16.47;76.17;100035.28;5039263;28;20385;-80
2021/07/01 03:02:33;;;;;;;;;;;;;;;16.42;75.13;100033.56;5039613;28;20053;-79
2021/07/01 03:05:00;;;;;;;34.90;21.95;;;;;;;16.41;76.53;100040.38;5039121;28;20279;-80
2021/07/01 03:07:29;;;;;;;35.80;22.33;;;;;;;16.46;76.75;100040.06;5059162;28;20413;-80
2021/07/01 03:09:57;;;;;;;40.28;22.95;;;;;;;16.55;76.80;100045.53;5059363;28;20064;-80
2021/07/01 03:12:24;;;;;;;37.60;22.98;;;;;;;16.50;76.60;100040.97;5047161;28;20350;-80
2021/07/01 03:14:52;;;;;;;32.92;20.75;;;;;;;16.54;75.97;100036.25;5039060;28;20041;-79
2021/07/01 03:17:19;;;;;;;34.60;21.13;;;;;;;16.55;75.17;100035.09;5039629;28;20053;-80
2021/07/01 03:19:47;;;;;;;33.17;19.60;;;;;;;16.45;75.43;100038.47;5045063;28;20052;-79
2021/07/01 03:22:15;;;;;;;34.92;20.50;;;;;;;16.30;75.80;100030.88;5049943;28;20056;-79
2021/07/01 03:24:44;;;;;;;31.55;20.05;;;;;;;16.32;76.19;100036.94;5058373;28;20057;-79
2021/07/01 03:27:11;;;;;;;32.47;21.30;;;;;;;16.41;76.08;100037.56;5058504;28;20053;-79
2021/07/01 03:29:39;;;;;;;33.50;19.90;;;;;;;16.37;75.90;100031.03;5058659;28;20059;-80
2021/07/01 03:32:07;;;;;;;34.42;20.75;;;;;;;16.39;76.16;100031.47;5050024;28;20060;-79
2021/07/01 03:34:34;;;;;;;30.10;19.73;;;;;;;16.28;76.54;100024.78;5058508;28;20056;-79
2021/07/01 03:37:01;;;;;;;29.88;18.65;;;;;;;16.26;76.23;100029.97;5058261;28;20053;-79
2021/07/01 03:39:29;;;;;;;24.95;17.92;;;;;;;16.29;75.51;100023.59;5058711;28;20053;-79
2021/07/01 03:41:58;;;;;;;28.05;17.13;;;;;;;16.34;75.81;100031.78;5057490;28;20401;-80
2021/07/01 03:44:25;;;;;;;22.50;15.38;;;;;;;16.43;75.10;100032.38;5058064;28;20057;-79
2021/07/01 03:46:52;;;;;;;22.50;15.57;;;;;;;16.48;74.39;100026.47;5057771;28;20057;-80
2021/07/01 03:49:20;;;;;;;21.10;14.80;;;;;;;16.52;74.00;100027.38;5057606;28;20060;-78
2021/07/01 03:51:47;;;;;;;20.48;14.77;;;;;;;16.39;74.76;100037.91;5058773;28;20045;-80
2021/07/01 03:54:14;;;;;;;21.92;14.85;;;;;;;16.46;74.46;100034.44;5077557;28;20059;-79
2021/07/01 03:56:42;;;;;;;26.30;16.58;;;;;;;16.52;74.33;100032.19;5069588;28;20477;-80
2021/07/01 03:59:12;;;;;;;21.08;15.57;;;;;;;16.56;74.09;100033.09;5078461;28;20057;-79
2021/07/01 04:01:40;;;;;;;21.85;15.48;;;;;;;16.62;74.17;100034.44;5070355;28;20044;-79
2021/07/01 04:04:08;;;;;;;22.13;15.57;;;;;;;16.59;73.72;100038.81;5078671;28;20055;-79
2021/07/01 04:06:38;;;;;;;21.65;15.75;;;;;;;16.64;74.19;100040.50;5067621;28;20056;-80
2021/07/01 04:09:07;;;;;;;23.55;15.20;;;;;;;16.67;74.23;100036.13;5058931;28;20128;-79
2021/07/01 04:11:35;;;;;;;19.15;14.10;;;;;;;16.73;73.73;100040.31;5058725;28;20052;-79
2021/07/01 04:14:03;;;;;;;19.63;13.23;;;;;;;16.62;73.72;100038.06;5058079;28;20053;-79
2021/07/01 04:16:36;;;;;;;20.33;13.27;;;;;;;16.57;73.41;100035.53;5058211;28;20045;-79
2021/07/01 04:19:03;;;;;;;20.52;14.68;;;;;;;16.64;73.18;100035.69;5057161;28;20057;-78
2021/07/01 04:21:31;;;;;;;19.75;15.15;;;;;;;16.67;72.53;100034.13;5060038;28;20156;-81
2021/07/01 04:24:04;;;;;;;22.98;16.33;;;;;;;16.53;72.77;100025.41;5064363;28;20397;-80
2021/07/01 04:26:32;;;;;;;18.88;15.40;;;;;;;16.40;73.10;100030.31;5078306;28;20060;-78
2021/07/01 04:29:00;;;;;;;19.95;15.90;;;;;;;16.55;72.33;100032.28;5077938;28;20072;-79
2021/07/01 04:31:27;;;;;;;18.83;14.43;;;;;;;16.48;73.01;100034.91;5078206;28;20049;-80
2021/07/01 04:33:56;;;;;;;19.00;13.60;;;;;;;16.55;73.28;100042.72;5078890;28;20052;-80
2021/07/01 04:36:23;;;;;;;19.88;14.25;;;;;;;16.41;73.44;100043.97;5078224;28;20071;-80
2021/07/01 04:38:51;;;;;;;18.17;13.50;;;;;;;16.55;73.03;100032.28;5066176;28;20064;-80
2021/07/01 04:41:20;;;;;;;16.67;11.93;;;;;;;16.39;73.95;100034.28;5075072;28;20052;-80
2021/07/01 04:43:48;;;;;;;16.67;12.98;;;;;;;16.56;74.32;100033.91;5066057;28;20049;-79
2021/07/01 04:46:15;;;;;;;18.15;12.30;;;;;;;16.45;74.63;100041.28;5055001;28;20053;-80
2021/07/01 04:48:43;;;;;;;13.32;9.35;;;;;;;16.58;74.58;100034.34;5055851;28;20516;-79
2021/07/01 04:51:12;;;;;;;12.93;9.45;;;;;;;16.49;74.52;100039.34;5059411;28;20060;-80
2021/07/01 04:53:40;;;;;;;11.60;9.18;;;;;;;16.41;75.40;100037.56;5063773;28;20057;-79
2021/07/01 04:56:09;;;;;;;12.20;9.02;;;;;;;16.53;74.91;100036.63;5068933;28;20067;-79
2021/07/01 04:58:37;;;;;;;10.90;8.63;;;;;;;16.45;75.60;100044.09;5075028;28;20063;-79
2021/07/01 05:01:05;;;;;;;13.63;8.70;;;;;;;16.60;75.13;100045.22;5078936;28;20049;-80
2021/07/01 05:03:32;;;;;;;12.52;9.80;;;;;;;16.61;75.45;100047.69;5079101;28;20409;-79
2021/07/01 05:05:59;;;;;;;12.38;9.55;;;;;;;16.60;75.97;100048.84;5056012;28;20060;-79
2021/07/01 05:08:28;;;;;;;12.52;9.60;;;;;;;16.69;75.58;100050.66;5066442;28;20045;-80
2021/07/01 05:10:56;;;;;;;13.27;10.10;;;;;;;16.77;75.22;100053.25;5061177;28;20053;-80
2021/07/01 05:13:23;;;;;;;12.63;10.00;;;;;;;16.86;74.62;100050.28;5053343;28;20491;-80
2021/07/01 05:15:51;;;;;;;13.73;9.52;;;;;;;16.88;73.72;100049.91;5055155;28;20076;-79
2021/07/01 05:18:18;;;;;;;12.90;9.80;;;;;;;16.90;73.41;100051.16;5058785;28;20044;-80
2021/07/01 05:20:47;;;;;;;13.95;10.32;;;;;;;16.90;73.01;100047.53;5061266;28;20064;-79
2021/07/01 05:23:14;;;;;;;14.25;10.82;;;;;;;16.87;72.75;100040.66;5058941;28;20505;-79
2021/07/01 05:25:43;;;;;;;12.77;10.02;;;;;;;16.73;72.46;100048.75;5058723;28;20061;-77
2021/07/01 05:28:11;;;;;;;15.13;10.63;;;;;;;16.18;74.11;100051.44;5071006;28;20067;-77
2021/07/01 05:30:39;;;;;;;14.27;11.10;;;;;;;16.48;74.35;100050.97;5036355;28;20053;-77
2021/07/01 05:33:06;;;;;;;11.77;10.20;;;;;;;16.44;73.44;100048.06;5045253;28;20056;-77
2021/07/01 05:35:33;;;;;;;15.52;11.57;;;;;;;16.55;74.23;100054.78;5069248;28;20067;-77
2021/07/01 05:38:01;;;;;;;13.50;10.98;;;;;;;16.61;73.89;100044.88;5056808;28;20060;-78
2021/07/01 05:40:28;;;;;;;18.52;14.50;;;;;;;16.67;72.22;100047.38;5079579;28;20048;-81
2021/07/01 05:42:57;;;;;;;20.55;15.77;;;;;;;16.77;72.04;100038.38;5071778;28;20064;-80
2021/07/01 05:45:24;;;;;;;20.35;16.90;;;;;;;16.86;71.80;100047.44;5065846;28;20482;-80
2021/07/01 05:47:52;;;;;;;21.20;17.85;;;;;;;16.84;72.10;100044.22;5041889;28;20383;-81
2021/07/01 05:50:20;;;;;;;18.55;16.30;;;;;;;16.83;71.69;100051.00;5042196;28;20104;-80
2021/07/01 05:52:50;;;;;;;23.98;17.33;;;;;;;16.78;72.65;100056.91;5043351;28;20056;-79
2021/07/01 05:55:18;;;;;;;18.70;16.00;;;;;;;16.66;72.47;100054.22;5050836;28;20041;-79
2021/07/01 05:57:45;;;;;;;18.02;15.40;;;;;;;16.64;73.14;100052.56;5057068;28;20053;-80
2021/07/01 06:00:17;;;;;;;21.17;16.50;;;;;;;16.71;73.11;100056.72;5063619;28;20053;-80
2021/07/01 06:02:45;;;;;;;20.70;16.25;;;;;;;16.73;73.08;100054.38;5071184;28;20056;-80
2021/07/01 06:05:13;;;;;;;22.15;16.35;;;;;;;16.69;73.95;100059.09;5082791;28;20512;-80
2021/07/01 06:07:43;;;;;;;19.83;14.45;;;;;;;16.73;73.79;100054.38;5081200;28;20057;-81
2021/07/01 06:10:13;;;;;;;18.48;14.25;;;;;;;16.67;73.83;100067.88;5080423;28;20417;-81
2021/07/01 06:12:42;;;;;;;17.08;13.25;;;;;;;16.73;74.20;100055.16;5081689;28;20417;-81
2021/07/01 06:15:10;;;;;;;18.67;12.25;;;;;;;16.82;74.05;100066.28;5081374;28;20052;-81
2021/07/01 06:17:39;;;;;;;15.32;11.18;;;;;;;16.72;73.60;100053.56;5077563;28;20059;-80
2021/07/01 06:20:09;;;;;;;17.83;12.38;;;;;;;16.70;74.13;100063.56;5077022;28;20497;-79
2021/07/01 06:22:38;;;;;;;15.50;11.57;;;;;;;16.54;74.78;100064.38;5080451;28;20053;-81
2021/07/01 06:25:07;;;;;;;15.13;10.40;;;;;;;16.38;75.16;100066.41;5055217;28;20052;-79
2021/07/01 06:27:37;;;;;;;14.70;10.88;;;;;;;16.34;75.17;100065.50;5050977;28;20060;-77
2021/07/01 06:30:13;;;;;;;13.52;10.52;;;;;;;16.51;74.35;100070.75;5052252;28;20057;-79
2021/07/01 06:32:45;;;;;;;14.90;11.43;;;;;;;16.68;74.52;100060.28;5046691;28;20463;-78
2021/07/01 06:35:13;;;;;;;14.05;11.60;;;;;;;16.68;74.54;100058.28;5059921;28;20065;-79
2021/07/01 06:37:41;;;;;;;15.68;12.95;;;;;;;16.63;73.48;100066.97;5060195;28;20053;-79
2021/07/01 06:40:13;;;;;;;16.92;13.63;;;;;;;16.70;73.12;100069.16;5060743;28;20057;-79
2021/07/01 06:42:46;;;;;;;18.58;14.68;;;;;;;16.73;73.92;100062.81;5061755;28;20056;-78
2021/07/01 06:45:14;;;;;;;21.02;15.43;;;;;;;16.80;74.54;100072.25;5065811;28;20076;-80
2021/07/01 06:47:46;;;;;;;18.55;14.38;;;;;;;16.91;73.47;100068.88;5060688;28;20057;-79
2021/07/01 06:50:15;;;;;;;19.83;14.43;;;;;;;16.88;73.65;100070.41;5060702;28;20049;-79
2021/07/01 06:52:44;;;;;;;21.95;15.10;;;;;;;16.92;73.15;100070.50;5060091;28;20060;-79
2021/07/01 06:55:12;;;;;;;22.92;15.18;;;;;;;16.86;73.73;100071.97;5059083;28;20060;-79
2021/07/01 06:57:40;;;;;;;23.40;14.45;;;;;;;16.84;72.50;100073.16;5063287;28;20055;-79
2021/07/01 07:00:09;;;;;;;19.65;14.35;;;;;;;16.89;73.79;100074.06;5057693;28;20391;-79
2021/07/01 07:02:40;;;;;;;20.08;13.77;;;;;;;16.88;72.57;100067.59;5059774;28;20060;-78
2021/07/01 07:05:12;;;;;;;20.67;14.93;;;;;;;16.80;72.83;100085.50;5058566;28;20056;-80
2021/07/01 07:07:41;;;;;;;23.30;15.77;;;;;;;16.83;72.77;100079.16;5057583;28;20060;-80
2021/07/01 07:10:12;;;;;;;24.25;15.63;;;;;;;16.84;73.26;100075.97;5056371;28;20057;-81
2021/07/01 07:12:41;;;;;;;21.80;16.02;;;;;;;16.89;73.49;100080.50;5064470;28;20055;-80
2021/07/01 07:15:10;;;;;;;25.35;18.17;;;;;;;16.91;72.54;100095.00;5057964;28;20056;-79
2021/07/01 07:17:39;;;;;;;25.67;16.92;;;;;;;16.63;72.24;100090.31;5061252;28;20048;-79
2021/07/01 07:20:09;;;;;;;25.27;17.42;;;;;;;16.79;72.09;100097.91;5058633;28;20067;-79
2021/07/01 07:22:40;;;;;;;28.02;19.92;;;;;;;16.50;72.51;100097.19;5058350;28;20061;-79
2021/07/01 07:25:10;;;;;;;30.48;21.45;;;;;;;16.52;72.57;100099.66;5058473;28;20048;-79
2021/07/01 07:27:38;;;;;;;;;;;;;;;16.58;71.31;100103.81;5058907;28;20053;-79
2021/07/01 07:30:08;;;;;;;29.55;20.65;;;;;;;16.65;72.00;100106.81;5058756;28;19936;-80
2021/07/01 07:32:39;;;;;;;26.40;20.92;;;;;;;16.64;71.91;100114.44;5060338;28;20056;-79
2021/07/01 07:35:09;;;;;;;27.95;20.52;;;;;;;16.65;72.55;100112.44;5060703;28;20075;-79
2021/07/01 07:37:37;;;;;;;31.90;22.85;;;;;;;16.68;72.04;100120.16;5055621;28;20527;-79
2021/07/01 07:40:05;;;;;;;33.00;24.10;;;;;;;16.69;71.76;100116.16;5059074;28;20060;-78
2021/07/01 07:42:34;;;;;;;31.15;22.30;;;;;;;16.63;71.49;100112.81;5059070;28;20052;-79
2021/07/01 07:45:02;;;;;;;33.70;22.90;;;;;;;16.65;71.75;100109.63;5062932;28;20052;-78
2021/07/01 07:47:30;;;;;;;30.70;22.27;;;;;;;16.76;71.20;100104.28;5060065;28;20064;-78
2021/07/01 07:49:59;;;;;;;28.30;20.88;;;;;;;16.79;70.45;100109.16;5059708;28;20417;-78
2021/07/01 07:52:31;;;;;;;29.13;20.60;;;;;;;16.86;69.99;100098.09;5057365;28;20530;-79
2021/07/01 07:55:04;;;;;;;27.90;20.70;;;;;;;17.00;68.98;100101.22;5064848;28;20052;-79
2021/07/01 07:57:32;;;;;;;27.55;20.35;;;;;;;17.02;68.77;100096.06;5064004;28;20059;-79
2021/07/01 07:59:59;;;;;;;27.73;17.33;;;;;;;17.00;68.11;100103.25;5057370;28;20061;-79
2021/07/01 08:02:46;;;;;;;18.67;15.80;;;;;;;17.04;68.17;100099.31;5061070;28;20060;-81
2021/07/01 08:05:16;;;;;;;22.70;17.88;;;;;;;17.03;68.24;100102.53;5058885;28;20053;-80
2021/07/01 08:07:49;;;;;;;25.85;18.08;;;;;;;16.91;68.33;100106.25;5059110;28;20409;-80
2021/07/01 08:10:18;;;;;;;21.77;19.10;;;;;;;16.94;68.43;100099.88;5060214;28;20052;-80
2021/07/01 08:12:50;;;;;;;22.17;18.50;;;;;;;16.97;68.41;100101.19;5059549;28;20048;-77
2021/07/01 08:15:19;;;;;;;22.77;18.67;;;;;;;16.98;68.39;100095.16;5052453;28;20045;-79
2021/07/01 08:17:48;;;;;;;25.52;20.08;;;;;;;17.12;68.58;100099.50;5060195;28;20060;-79
2021/07/01 08:20:18;;;;;;;25.33;20.70;;;;;;;17.18;68.10;100100.84;5058084;28;20053;-79
2021/07/01 08:22:50;;;;;;;23.52;20.40;;;;;;;17.32;67.53;100101.13;5059581;28;20053;-79
2021/07/01 08:25:22;;;;;;;23.40;18.70;;;;;;;17.32;66.89;100095.50;5056310;28;20402;-79
2021/07/01 08:27:51;;;;;;;24.00;18.73;;;;;;;17.50;66.58;100103.53;5055222;28;20052;-79
2021/07/01 08:30:21;;;;;;;20.20;18.02;;;;;;;17.57;66.22;100106.47;5060288;28;20056;-80
2021/07/01 08:32:53;;;;;;;17.77;14.50;;;;;;;17.72;65.64;100094.28;5062262;28;20053;-79
2021/07/01 08:35:23;;;;;;;18.58;14.63;;;;;;;17.78;66.00;100103.28;5062715;28;20045;-79
2021/07/01 08:37:54;;;;;;;19.02;13.52;;;;;;;17.89;65.31;100097.88;5078875;28;20059;-79
2021/07/01 08:40:22;;;;;;;18.58;12.90;;;;;;;17.87;65.58;100105.88;5072497;28;20060;-79
2021/07/01 08:42:55;;;;;;;18.67;13.10;;;;;;;17.83;65.52;100100.19;5045156;28;20049;-78
2021/07/01 08:45:27;;;;;;;14.98;10.75;;;;;;;17.55;66.72;100106.03;5061391;28;20050;-78
2021/07/01 08:48:01;;;;;;;13.48;10.50;;;;;;;17.02;68.33;100112.13;5076085;28;20049;-78
2021/07/01 08:50:32;;;;;;;17.42;11.73;;;;;;;17.00;68.55;100112.50;5061366;28;20401;-79
2021/07/01 08:53:04;;;;;;;14.18;11.15;;;;;;;17.27;68.43;100123.94;5062115;28;20045;-80
2021/07/01 08:55:32;;;;;;;15.57;11.45;;;;;;;17.04;69.70;100113.38;5066236;28;20052;-79
2021/07/01 08:58:01;;;;;;;18.63;13.25;;;;;;;17.21;70.74;100117.78;5078306;28;20049;-79
2021/07/01 09:00:29;;;;;;;18.33;12.43;;;;;;;17.33;69.35;100121.66;5087015;28;20052;-79
2021/07/01 09:03:07;;;;;;;17.80;12.38;;;;;;;17.13;70.18;100118.00;5066077;28;20044;-79
2021/07/01 09:05:36;;;;;;;21.08;13.70;;;;;;;17.17;71.07;100124.53;5072856;28;20432;-79
2021/07/01 09:08:08;;;;;;;20.45;14.02;;;;;;;17.30;71.34;100122.38;5066221;28;20060;-79
2021/07/01 09:10:37;;;;;;;18.75;15.00;;;;;;;17.09;71.44;100129.16;5081054;28;20385;-81
2021/07/01 09:13:08;;;;;;;19.20;13.18;;;;;;;17.18;70.41;100120.53;5083544;28;20059;-81
2021/07/01 09:15:37;;;;;;;19.85;14.02;;;;;;;17.08;70.51;100123.94;5061305;28;20044;-81
2021/07/01 09:18:10;;;;;;;21.50;14.73;;;;;;;17.00;69.83;100137.00;5070815;28;20048;-83
2021/07/01 09:20:38;;;;;;;19.85;14.77;;;;;;;17.10;71.11;100136.44;5072606;28;20049;-81
2021/07/01 09:23:10;;;;;;;18.40;13.47;;;;;;;16.85;71.11;100124.59;5072940;28;20504;-82
2021/07/01 09:25:39;;;;;;;21.42;14.77;;;;;;;16.81;72.05;100129.31;5055922;28;20486;-79
2021/07/01 09:28:06;;;;;;;20.45;15.68;;;;;;;16.89;71.69;100131.13;5067467;28;20046;-81
2021/07/01 09:30:35;;;;;;;16.00;13.38;;;;;;;16.98;70.88;100137.38;5051880;28;20121;-80
2021/07/01 09:33:05;;;;;;;16.70;13.13;;;;;;;16.98;70.26;100128.94;5061412;28;20049;-85
2021/07/01 09:35:35;;;;;;;20.85;14.88;;;;;;;16.99;70.95;100126.94;5066708;28;20056;-81
2021/07/01 09:38:05;;;;;;;22.05;15.13;;;;;;;17.07;70.67;100130.72;5070381;28;20049;-84
2021/07/01 09:40:35;;;;;;;19.00;14.15;;;;;;;17.01;70.80;100139.47;5056853;28;20069;-79
2021/07/01 09:43:04;;;;;;;19.85;14.73;;;;;;;16.95;71.28;100128.88;5073256;28;20072;-79
2021/07/01 09:45:33;;;;;;;;;;;;;;;16.97;71.12;100140.56;5072102;28;20053;-80
2021/07/01 09:48:05;;;;;;;18.77;13.82;;;;;;;17.07;71.40;100147.59;5066327;28;19920;-80
2021/07/01 09:50:34;;;;;;;18.65;13.45;;;;;;;16.84;72.08;100156.75;5066279;28;20055;-80
2021/07/01 09:53:03;;;;;;;;;;;;;;;16.80;72.00;100150.19;5080362;28;20052;-78
2021/07/01 09:55:33;;;;;;;17.33;12.55;;;;;;;16.92;71.86;100147.25;5066664;28;19927;-80
2021/07/01 09:58:04;;;;;;;17.33;14.25;;;;;;;16.84;73.36;100149.13;5067403;28;20041;-79
2021/07/01 10:00:33;;;;;;;17.40;13.55;;;;;;;17.16;71.52;100149.03;5064143;28;20049;-80
2021/07/01 10:03:05;;;;;;;15.90;12.55;;;;;;;17.32;71.31;100148.19;5070800;28;20049;-79
2021/07/01 10:05:34;;;;;;;14.35;11.10;;;;;;;17.13;70.94;100161.03;5084570;28;20049;-80
2021/07/01 10:08:01;;;;;;;16.88;11.63;;;;;;;17.33;70.58;100156.25;5068138;28;20052;-79
2021/07/01 10:10:29;;;;;;;14.75;11.43;;;;;;;17.33;70.69;100153.44;5062051;28;20055;-81
2021/07/01 10:12:59;;;;;;;17.15;11.80;;;;;;;17.52;70.05;100152.66;5058901;28;20449;-81
2021/07/01 10:15:28;;;;;;;13.75;11.75;;;;;;;17.50;70.39;100155.03;5061821;28;20049;-80
2021/07/01 10:18:13;;;;;;;14.52;11.93;;;;;;;17.29;69.61;100154.56;5065491;28;20041;-80
2021/07/01 10:20:43;;;;;;;17.35;14.05;;;;;;;17.22;70.92;100158.03;5072899;28;20045;-81
2021/07/01 10:23:21;;;;;;;17.80;14.73;;;;;;;17.31;70.82;100152.19;5065009;28;20067;-82
2021/07/01 10:25:52;;;;;;;16.23;13.95;;;;;;;17.47;70.54;100155.78;5061909;28;20075;-82
2021/07/01 10:28:23;;;;;;;14.20;11.10;;;;;;;17.28;69.25;100156.53;5070073;28;20057;-82
2021/07/01 10:31:01;;;;;;;12.85;11.18;;;;;;;17.42;69.62;100151.22;5057971;28;20064;-83
2021/07/01 10:33:30;;;;;;;12.35;9.95;;;;;;;17.48;68.03;100151.75;5067808;28;20060;-84
2021/07/01 10:36:01;;;;;;;12.60;9.80;;;;;;;17.68;68.62;100148.94;5059217;28;20045;-83
2021/07/01 10:38:42;;;;;;;11.18;9.13;;;;;;;17.96;66.94;100145.94;5065979;28;20045;-84
2021/07/01 10:41:10;;;;;;;10.77;9.50;;;;;;;18.16;65.89;100147.50;5062470;28;20048;-84
2021/07/01 10:43:41;;;;;;;11.23;10.02;;;;;;;18.02;66.32;100158.53;5066916;28;20059;-83
2021/07/01 10:46:10;;;;;;;14.70;11.77;;;;;;;17.95;65.90;100164.81;5054026;28;20052;-83
2021/07/01 10:48:38;;;;;;;14.07;12.50;;;;;;;17.81;65.85;100159.69;5041349;28;20057;-83
2021/07/01 10:51:11;;;;;;;16.05;12.95;;;;;;;17.88;66.62;100158.25;5039639;28;20052;-82
2021/07/01 10:53:40;;;;;;;15.82;13.48;;;;;;;18.25;64.56;100150.09;5044169;28;20053;-83
2021/07/01 10:56:10;;;;;;;17.30;13.35;;;;;;;18.30;63.80;100154.63;5038616;28;20044;-83
2021/07/01 10:58:39;;;;;;;19.80;14.13;;;;;;;18.26;64.70;100152.53;5031601;28;20056;-82
2021/07/01 11:01:06;;;;;;;17.33;13.75;;;;;;;18.45;64.11;100153.69;5043998;28;20044;-82
2021/07/01 11:03:35;;;;;;;17.58;14.65;;;;;;;18.25;64.96;100152.94;5046915;28;20049;-82
2021/07/01 11:06:05;;;;;;;16.85;13.23;;;;;;;18.48;62.80;100163.38;5045527;28;20056;-82
2021/07/01 11:08:34;;;;;;;14.25;12.75;;;;;;;18.38;63.78;100150.75;5046086;28;20049;-82
2021/07/01 11:11:03;;;;;;;17.38;13.05;;;;;;;18.32;63.90;100149.41;5037833;28;20049;-82
2021/07/01 11:13:32;;;;;;;16.25;13.85;;;;;;;18.10;64.62;100151.00;5044903;28;20049;-81
2021/07/01 11:16:05;;;;;;;18.13;14.97;;;;;;;18.19;64.75;100148.78;5048284;28;20049;-81
2021/07/01 11:18:40;;;;;;;15.82;14.13;;;;;;;18.10;65.17;100154.66;5038511;28;20045;-80
2021/07/01 11:21:13;;;;;;;16.58;14.10;;;;;;;18.02;66.51;100164.16;5038561;28;20049;-82